This is the latest recevied weather packets stored in our database for station/object K5IDL. If no packets are shown the sender has not sent any weather packets the latest 1 day(s).
| Time | Temp. | Humidity | Pressure | Rain* | Wind** | Luminosity | Snow |
|---|---|---|---|---|---|---|---|
| 1778102926 | 16.67° C | 74% | 1015 hPa | 0 mm | - | 125 W/m² | - |
| 1778101105 | 16.11° C | 75% | 1014.8 hPa | 0 mm | - | 121 W/m² | - |
| 1778099286 | 16.11° C | 74% | 1015.3 hPa | 0 mm | - | 114 W/m² | - |
| 1778098983 | 16.67° C | 73% | 1015.3 hPa | 0 mm | - | 139 W/m² | - |
| 1778097157 | 15.56° C | 77% | 1015.7 hPa | 0 mm | - | 152 W/m² | - |
| 1778096249 | 15° C | 77% | 1015.9 hPa | 0 mm | - | 129 W/m² | - |
| 1778094429 | 15° C | 79% | 1016.1 hPa | 0 mm | - | 72 W/m² | - |
| 1778093822 | 15° C | 79% | 1015.6 hPa | 0 mm | - | 98 W/m² | - |
| 1778093518 | 15° C | 79% | 1015.6 hPa | 0 mm | - | 128 W/m² | - |
| 1778093211 | 14.44° C | 81% | 1015.1 hPa | 0 mm | - | 178 W/m² | - |
| 1778091998 | 14.44° C | 81% | 1014.6 hPa | 0 mm | - | 117 W/m² | - |
| 1778089875 | 13.33° C | 86% | 1014.8 hPa | 0 mm | - | 116 W/m² | - |
| 1778088058 | 12.22° C | 89% | 1015 hPa | 0 mm | - | 93 W/m² | - |
| 1778087453 | 12.22° C | 90% | 1015.1 hPa | 0 mm | - | 69 W/m² | - |
| 1778085321 | 12.78° C | 90% | 1016.8 hPa | 0 mm | - | 57 W/m² | - |
| 1778083496 | 12.22° C | 93% | 1014.5 hPa | 0 mm | - | 140 W/m² | - |
| 1778083193 | 12.22° C | 93% | 1014.1 hPa | 0 mm | - | 148 W/m² | - |
| 1778082891 | 12.22° C | 93% | 1015.1 hPa | 0 mm | - | 180 W/m² | - |
| 1778081783 | 12.78° C | 87% | 1018 hPa | 0 mm | - | 10 W/m² | - |
| 1778080270 | 12.78° C | 82% | 1016 hPa | 0 mm | - | 29 W/m² | - |
| 1778079360 | 12.78° C | 82% | 1015.7 hPa | 0 mm | - | 34 W/m² | - |
| 1778078150 | 12.78° C | 81% | 1015.7 hPa | 0 mm | - | 32 W/m² | - |
| 1778077243 | 12.78° C | 82% | 1015.4 hPa | 0 mm | - | 60 W/m² | - |
| 1778074818 | 12.78° C | 83% | 1014.6 hPa | 0 mm | - | 32 W/m² | - |
| 1778073304 | 12.22° C | 86% | 1014.2 hPa | 0 mm | - | 16 W/m² | - |
* Rain latest hour (hover to see other rain measurements)
** Current wind speed in m/s (hover to see current wind gust speed)